createdAt,value
2018-05-04T00:00:41.588Z,7.60
2018-05-04T00:03:09.161Z,7.50
2018-05-04T00:05:36.697Z,7.40
2018-05-04T00:08:04.244Z,7.40
2018-05-04T00:10:31.795Z,7.40
2018-05-04T00:13:00.111Z,7.30
2018-05-04T00:15:27.638Z,7.30
2018-05-04T00:17:55.192Z,7.20
2018-05-04T00:20:22.753Z,7.20
2018-05-04T00:22:50.293Z,7.20
2018-05-04T00:25:17.865Z,7.30
2018-05-04T00:27:45.445Z,7.30
2018-05-04T00:30:12.989Z,7.20
2018-05-04T00:32:41.264Z,7.30
2018-05-04T00:35:09.586Z,7.30
2018-05-04T00:37:37.124Z,7.20
2018-05-04T00:40:04.689Z,7.20
2018-05-04T00:42:33.045Z,7.20
2018-05-04T00:45:00.593Z,7.20
2018-05-04T00:47:28.195Z,7.10
2018-05-04T00:49:55.770Z,7.10
2018-05-04T00:52:23.329Z,7.00
2018-05-04T00:54:50.904Z,7.10
2018-05-04T00:57:18.456Z,7.00
2018-05-04T00:59:46.011Z,6.90
2018-05-04T01:02:14.295Z,6.80
2018-05-04T01:04:42.642Z,6.80
2018-05-04T01:07:10.205Z,6.70
2018-05-04T01:09:37.772Z,6.70
2018-05-04T01:12:05.297Z,6.70
2018-05-04T01:14:33.584Z,6.60
2018-05-04T01:17:01.182Z,6.60
2018-05-04T01:19:28.745Z,6.50
2018-05-04T01:21:57.112Z,6.50
2018-05-04T01:24:24.651Z,6.50
2018-05-04T01:26:52.199Z,6.50
2018-05-04T01:29:19.744Z,6.40
2018-05-04T01:31:48.051Z,6.30
2018-05-04T01:34:15.605Z,6.30
2018-05-04T01:36:43.977Z,6.20
2018-05-04T01:39:11.634Z,6.20
2018-05-04T01:41:39.150Z,6.20
2018-05-04T01:44:07.505Z,6.10
2018-05-04T01:46:35.060Z,6.10
2018-05-04T01:49:02.601Z,6.10
2018-05-04T01:51:30.191Z,6.00
2018-05-04T01:53:57.758Z,6.00
2018-05-04T01:56:25.321Z,6.00
2018-05-04T01:58:52.876Z,6.00
2018-05-04T02:01:21.215Z,6.20
2018-05-04T02:03:48.745Z,6.10
2018-05-04T02:06:16.291Z,6.10
2018-05-04T02:08:44.597Z,6.00
2018-05-04T02:11:12.903Z,5.90
2018-05-04T02:13:40.427Z,5.90
2018-05-04T02:16:07.987Z,5.80
2018-05-04T02:18:35.580Z,5.80
2018-05-04T02:21:03.140Z,5.80
2018-05-04T02:23:30.708Z,5.80
2018-05-04T02:25:58.252Z,5.70
2018-05-04T02:28:25.778Z,5.70
2018-05-04T02:30:54.113Z,5.70
2018-05-04T02:33:21.653Z,5.70
2018-05-04T02:35:49.212Z,5.60
2018-05-04T02:38:17.518Z,5.60
2018-05-04T02:40:45.062Z,5.50
2018-05-04T02:43:13.372Z,5.50
2018-05-04T02:45:41.704Z,5.40
2018-05-04T02:48:09.238Z,5.40
2018-05-04T02:50:36.794Z,5.40
2018-05-04T02:53:05.120Z,5.20
2018-05-04T02:55:32.750Z,5.20
2018-05-04T02:58:00.253Z,5.20
2018-05-04T03:00:27.864Z,5.30
2018-05-04T03:02:55.390Z,5.20
2018-05-04T03:05:22.965Z,5.20
2018-05-04T03:07:50.523Z,5.10
2018-05-04T03:10:18.876Z,5.00
2018-05-04T03:12:46.445Z,5.00
2018-05-04T03:15:14.007Z,5.00
2018-05-04T03:17:41.601Z,4.90
2018-05-04T03:20:09.136Z,4.90
2018-05-04T03:22:36.681Z,4.90
2018-05-04T03:25:05.047Z,4.80
2018-05-04T03:27:32.590Z,4.80
2018-05-04T03:30:00.138Z,4.80
2018-05-04T03:32:27.720Z,4.80
2018-05-04T03:34:55.297Z,4.80
2018-05-04T03:37:22.849Z,4.70
2018-05-04T03:39:51.291Z,4.70
2018-05-04T03:42:18.838Z,4.70
2018-05-04T03:44:46.900Z,4.70
2018-05-04T03:47:14.982Z,4.60
2018-05-04T03:49:43.320Z,4.60
2018-05-04T03:52:12.390Z,4.60
2018-05-04T03:54:39.986Z,4.60
2018-05-04T03:57:19.508Z,4.60
2018-05-04T03:59:58.915Z,4.50
2018-05-04T04:02:38.288Z,4.50
2018-05-04T04:05:06.696Z,4.60
2018-05-04T04:07:34.292Z,4.60
2018-05-04T04:10:01.857Z,4.60
2018-05-04T04:12:29.491Z,4.60
2018-05-04T04:14:57.082Z,4.60
2018-05-04T04:17:24.620Z,4.70
2018-05-04T04:19:52.253Z,4.80
2018-05-04T04:22:19.804Z,4.80
2018-05-04T04:24:47.358Z,4.90
2018-05-04T04:27:15.645Z,5.10
2018-05-04T04:29:43.948Z,5.10
2018-05-04T04:32:11.481Z,5.10
2018-05-04T04:34:39.022Z,5.20
2018-05-04T04:37:06.569Z,5.30
2018-05-04T04:39:34.119Z,5.40
2018-05-04T04:42:02.401Z,5.70
2018-05-04T04:44:30.697Z,5.80
2018-05-04T04:46:58.999Z,6.00
2018-05-04T04:49:26.550Z,6.00
2018-05-04T04:51:54.847Z,6.30
2018-05-04T04:54:23.131Z,6.40
2018-05-04T04:56:51.560Z,6.50
2018-05-04T04:59:19.104Z,6.50
2018-05-04T05:01:46.884Z,6.80
2018-05-04T05:04:15.295Z,7.50
2018-05-04T05:06:42.877Z,7.50
2018-05-04T05:09:10.468Z,7.80
2018-05-04T05:11:38.006Z,8.60
2018-05-04T05:14:05.524Z,10.40
2018-05-04T05:16:33.051Z,12.70
2018-05-04T05:19:00.562Z,14.30
2018-05-04T05:21:28.079Z,15.90
2018-05-04T05:23:56.349Z,18.70
2018-05-04T05:26:23.956Z,18.60
2018-05-04T05:28:51.485Z,19.90
2018-05-04T05:31:19.034Z,20.20
2018-05-04T05:33:46.555Z,20.90
2018-05-04T05:36:14.113Z,22.40
2018-05-04T05:38:42.527Z,23.40
2018-05-04T05:41:10.231Z,23.30
2018-05-04T05:43:37.755Z,24.80
2018-05-04T05:46:06.170Z,24.00
2018-05-04T05:48:33.699Z,23.90
2018-05-04T05:51:01.233Z,25.10
2018-05-04T05:53:28.750Z,24.90
2018-05-04T05:55:56.346Z,25.50
2018-05-04T05:58:23.929Z,25.10
2018-05-04T06:00:51.547Z,24.40
2018-05-04T06:03:19.053Z,25.60
2018-05-04T06:05:47.421Z,27.50
2018-05-04T06:08:14.921Z,27.50
2018-05-04T06:10:43.224Z,28.40
2018-05-04T06:13:10.979Z,28.30
2018-05-04T06:15:39.286Z,26.60
2018-05-04T06:18:06.829Z,26.60
2018-05-04T06:20:34.528Z,28.10
2018-05-04T06:23:02.812Z,28.60
2018-05-04T06:25:31.084Z,30.40
2018-05-04T06:27:59.384Z,30.40
2018-05-04T06:30:26.920Z,30.30
2018-05-04T06:32:54.476Z,30.30
2018-05-04T06:35:21.980Z,30.20
2018-05-04T06:37:50.334Z,29.90
2018-05-04T06:40:18.163Z,29.90
2018-05-04T06:42:46.485Z,32.50
2018-05-04T06:45:14.009Z,32.40
2018-05-04T06:47:42.300Z,31.20
2018-05-04T06:50:09.803Z,31.20
2018-05-04T06:52:37.323Z,31.70
2018-05-04T06:55:04.923Z,32.20
2018-05-04T06:57:32.545Z,31.90
2018-05-04T07:00:00.341Z,32.20
2018-05-04T07:02:27.876Z,30.70
2018-05-04T07:04:55.442Z,30.20
2018-05-04T07:07:23.027Z,30.90
2018-05-04T07:09:52.284Z,30.90
2018-05-04T07:12:19.818Z,29.80
2018-05-04T07:14:47.346Z,28.40
2018-05-04T07:17:14.906Z,30.50
2018-05-04T07:19:42.444Z,32.50
2018-05-04T07:22:10.022Z,32.10
2018-05-04T07:24:38.252Z,33.70
2018-05-04T07:27:05.920Z,33.60
2018-05-04T07:29:33.520Z,32.30
2018-05-04T07:32:01.783Z,32.30
2018-05-04T07:34:29.470Z,32.30
2018-05-04T07:36:58.001Z,31.20
2018-05-04T07:39:25.611Z,31.10
2018-05-04T07:41:53.161Z,31.40
2018-05-04T07:44:21.011Z,32.80
2018-05-04T07:46:48.564Z,31.60
2018-05-04T07:49:17.832Z,33.40
2018-05-04T07:51:45.374Z,33.40
2018-05-04T07:54:12.965Z,34.10
2018-05-04T07:56:40.464Z,32.80
2018-05-04T07:59:08.049Z,32.50
2018-05-04T08:01:35.556Z,32.50
2018-05-04T08:04:03.112Z,33.80
2018-05-04T08:06:31.444Z,34.70
2018-05-04T08:08:59.000Z,34.70
2018-05-04T08:11:26.552Z,35.10
2018-05-04T08:13:54.871Z,37.50
2018-05-04T08:16:22.395Z,37.50
2018-05-04T08:18:50.731Z,36.10
2018-05-04T08:21:18.254Z,36.10
2018-05-04T08:23:45.787Z,33.70
2018-05-04T08:26:13.321Z,33.70
2018-05-04T08:28:40.869Z,34.00
2018-05-04T08:31:08.368Z,32.90
2018-05-04T08:33:35.978Z,32.70
2018-05-04T08:36:03.510Z,31.40
2018-05-04T08:38:31.079Z,31.60
2018-05-04T08:40:58.734Z,32.00
2018-05-04T08:43:27.110Z,29.90
2018-05-04T08:45:54.635Z,29.80
2018-05-04T08:48:22.192Z,32.10
2018-05-04T08:50:49.771Z,32.70
2018-05-04T08:53:18.038Z,32.30
2018-05-04T08:55:46.350Z,30.30
2018-05-04T08:58:13.880Z,30.20
2018-05-04T09:00:41.437Z,31.70
2018-05-04T09:03:08.974Z,32.00
2018-05-04T09:05:36.570Z,31.20
2018-05-04T09:08:04.063Z,31.70
2018-05-04T09:10:31.665Z,31.80
2018-05-04T09:12:59.933Z,31.00
2018-05-04T09:15:27.532Z,31.00
2018-05-04T09:17:55.315Z,32.30
2018-05-04T09:20:22.812Z,30.80
2018-05-04T09:22:50.375Z,30.50
2018-05-04T09:25:18.319Z,31.60
2018-05-04T09:27:46.621Z,30.20
2018-05-04T09:30:14.130Z,30.20
2018-05-04T09:32:41.834Z,29.90
2018-05-04T09:35:10.158Z,28.90
2018-05-04T09:37:38.486Z,28.70
2018-05-04T09:40:06.000Z,28.70
2018-05-04T09:42:34.435Z,28.00
2018-05-04T09:45:01.941Z,26.70
2018-05-04T09:47:29.549Z,25.20
2018-05-04T09:49:57.119Z,24.50
2018-05-04T09:52:25.398Z,23.30
2018-05-04T09:54:52.905Z,23.20
2018-05-04T09:57:20.675Z,22.80
2018-05-04T09:59:48.230Z,23.20
2018-05-04T10:02:16.516Z,22.90
2018-05-04T10:04:44.799Z,23.00
2018-05-04T10:07:13.109Z,21.90
2018-05-04T10:09:40.683Z,21.80
2018-05-04T10:12:08.204Z,22.20
2018-05-04T10:14:35.717Z,21.70
2018-05-04T10:17:04.072Z,21.90
2018-05-04T10:19:31.572Z,21.90
2018-05-04T10:22:00.023Z,21.80
2018-05-04T10:24:27.484Z,21.80
2018-05-04T10:26:55.039Z,21.70
2018-05-04T10:29:22.619Z,20.70
2018-05-04T10:31:50.237Z,21.10
2018-05-04T10:34:17.756Z,20.80
2018-05-04T10:36:45.261Z,20.30
2018-05-04T10:39:12.793Z,20.70
2018-05-04T10:41:40.287Z,20.30
2018-05-04T10:44:07.806Z,20.60
2018-05-04T10:46:36.113Z,20.20
2018-05-04T10:49:03.640Z,20.20
2018-05-04T10:51:31.321Z,20.70
2018-05-04T10:53:58.886Z,20.10
2018-05-04T10:56:26.386Z,20.30
2018-05-04T10:58:54.680Z,20.60
2018-05-04T11:01:22.253Z,20.50
2018-05-04T11:03:50.544Z,20.00
2018-05-04T11:06:18.911Z,20.40
2018-05-04T11:08:47.301Z,20.30
2018-05-04T11:11:21.154Z,20.70
2018-05-04T11:13:48.688Z,20.80
2018-05-04T11:16:17.119Z,20.70
2018-05-04T11:18:44.721Z,20.70
2018-05-04T11:21:12.263Z,20.00
2018-05-04T11:23:40.801Z,20.70
2018-05-04T11:26:08.338Z,20.60
2018-05-04T11:28:35.959Z,20.60
2018-05-04T11:31:03.503Z,20.60
2018-05-04T11:33:31.028Z,20.20
2018-05-04T11:35:59.545Z,20.30
2018-05-04T11:38:27.136Z,20.30
2018-05-04T11:40:54.710Z,20.20
2018-05-04T11:43:23.279Z,20.70
2018-05-04T11:45:50.814Z,20.50
2018-05-04T11:48:18.431Z,20.50
2018-05-04T11:50:45.951Z,20.70
2018-05-04T11:53:13.496Z,20.50
2018-05-04T11:55:41.021Z,20.40
2018-05-04T11:58:09.399Z,20.80
2018-05-04T12:00:37.006Z,20.80
2018-05-04T12:03:04.578Z,20.60
2018-05-04T12:05:32.155Z,20.40
2018-05-04T12:08:00.021Z,20.30
2018-05-04T12:10:28.346Z,20.50
2018-05-04T12:12:55.942Z,20.50
2018-05-04T12:15:23.468Z,20.50
2018-05-04T12:17:51.022Z,20.50
2018-05-04T12:20:19.317Z,20.10
2018-05-04T12:22:47.667Z,20.20
2018-05-04T12:25:15.129Z,20.10
2018-05-04T12:27:42.683Z,20.20
2018-05-04T12:30:10.205Z,19.60
2018-05-04T12:32:37.704Z,19.90
2018-05-04T12:35:05.251Z,20.30
2018-05-04T12:37:33.971Z,20.80
2018-05-04T12:40:01.523Z,20.80
2018-05-04T12:42:29.826Z,20.50
2018-05-04T12:44:58.117Z,20.40
2018-05-04T12:47:26.471Z,20.50
2018-05-04T12:49:53.984Z,20.40
2018-05-04T12:52:23.425Z,20.90
2018-05-04T12:54:51.079Z,20.70
2018-05-04T12:57:19.043Z,20.80
2018-05-04T12:59:47.680Z,20.80
2018-05-04T13:02:15.200Z,20.70
2018-05-04T13:04:42.756Z,20.70
2018-05-04T13:07:10.293Z,20.60
2018-05-04T13:09:37.865Z,20.60
2018-05-04T13:12:05.389Z,20.70
2018-05-04T13:14:34.394Z,20.30
2018-05-04T13:17:02.693Z,20.00
2018-05-04T13:19:31.049Z,20.30
2018-05-04T13:21:58.784Z,20.30
2018-05-04T13:24:26.298Z,20.40
2018-05-04T13:26:53.820Z,20.70
2018-05-04T13:29:21.332Z,20.80
2018-05-04T13:31:48.851Z,21.10
2018-05-04T13:34:17.150Z,20.70
2018-05-04T13:36:44.704Z,20.70
2018-05-04T13:39:13.278Z,20.40
2018-05-04T13:41:40.813Z,20.30
2018-05-04T13:44:08.404Z,20.40
2018-05-04T13:46:35.951Z,20.50
2018-05-04T13:49:03.475Z,20.40
2018-05-04T13:51:31.084Z,20.30
2018-05-04T13:53:58.628Z,20.30
2018-05-04T13:56:28.213Z,20.60
2018-05-04T13:58:55.872Z,20.60
2018-05-04T14:01:23.413Z,20.40
2018-05-04T14:03:50.966Z,20.20
2018-05-04T14:06:19.280Z,20.30
2018-05-04T14:08:46.833Z,20.30
2018-05-04T14:11:15.121Z,20.30
2018-05-04T14:13:43.499Z,20.50
2018-05-04T14:16:11.045Z,20.50
2018-05-04T14:18:38.580Z,20.60
2018-05-04T14:21:06.101Z,20.60
2018-05-04T14:23:40.479Z,20.50
2018-05-04T14:26:07.999Z,20.60
2018-05-04T14:28:35.543Z,20.60
2018-05-04T14:31:03.273Z,20.50
2018-05-04T14:33:31.556Z,20.60
2018-05-04T14:35:59.056Z,20.50
2018-05-04T14:38:26.628Z,20.40
2018-05-04T14:40:54.160Z,20.40
2018-05-04T14:43:21.755Z,20.60
2018-05-04T14:45:50.058Z,20.30
2018-05-04T14:48:17.593Z,20.30
2018-05-04T14:50:45.142Z,20.10
2018-05-04T14:53:12.637Z,20.30
2018-05-04T14:55:40.181Z,20.10
2018-05-04T14:58:07.689Z,20.20
2018-05-04T15:00:35.213Z,20.20
2018-05-04T15:03:03.641Z,20.30
2018-05-04T15:05:31.373Z,20.30
2018-05-04T15:07:58.888Z,20.20
2018-05-04T15:10:26.404Z,20.30
2018-05-04T15:12:53.965Z,20.20
2018-05-04T15:15:21.490Z,20.30
2018-05-04T15:17:48.992Z,20.10
2018-05-04T15:20:17.282Z,20.30
2018-05-04T15:22:45.603Z,20.20
2018-05-04T15:25:13.176Z,20.20
2018-05-04T15:27:40.726Z,20.20
2018-05-04T15:30:08.242Z,20.30
2018-05-04T15:32:35.740Z,20.30
2018-05-04T15:35:03.260Z,20.10
2018-05-04T15:37:31.900Z,19.90
2018-05-04T15:39:59.486Z,20.00
2018-05-04T15:42:27.005Z,20.00
2018-05-04T15:44:54.762Z,20.10
2018-05-04T15:47:22.335Z,20.10
2018-05-04T15:49:49.829Z,20.00
2018-05-04T15:52:17.368Z,20.00
2018-05-04T15:54:45.933Z,20.00
2018-05-04T15:57:14.162Z,20.00
2018-05-04T15:59:41.672Z,19.90
2018-05-04T16:02:09.191Z,19.80
2018-05-04T16:04:37.484Z,19.80
2018-05-04T16:07:05.787Z,19.70
2018-05-04T16:09:33.496Z,19.70
2018-05-04T16:12:01.188Z,19.90
2018-05-04T16:14:41.507Z,19.90
2018-05-04T16:17:11.221Z,19.90
2018-05-04T16:19:38.957Z,19.90
2018-05-04T16:22:06.614Z,20.00
2018-05-04T16:24:34.820Z,19.80
2018-05-04T16:27:02.344Z,19.80
2018-05-04T16:29:29.920Z,19.80
2018-05-04T16:31:57.472Z,19.80
2018-05-04T16:34:25.788Z,19.60
2018-05-04T16:36:53.350Z,19.60
2018-05-04T16:39:20.863Z,19.50
2018-05-04T16:41:48.479Z,19.50
2018-05-04T16:44:15.977Z,19.50
2018-05-04T16:46:49.248Z,19.50
2018-05-04T16:49:24.841Z,19.40
2018-05-04T16:51:52.464Z,19.40
2018-05-04T16:54:19.989Z,19.30
2018-05-04T16:56:47.548Z,19.30
2018-05-04T16:59:15.817Z,19.40
2018-05-04T17:01:43.437Z,19.30
2018-05-04T17:04:11.021Z,19.30
2018-05-04T17:06:38.668Z,19.20
2018-05-04T17:09:06.305Z,19.20
2018-05-04T17:11:33.841Z,19.10
2018-05-04T17:14:01.358Z,19.10
2018-05-04T17:16:28.857Z,19.10
2018-05-04T17:18:56.392Z,19.10
2018-05-04T17:21:23.940Z,19.00
2018-05-04T17:23:51.464Z,19.00
2018-05-04T17:26:21.660Z,18.90
2018-05-04T17:28:49.399Z,18.80
2018-05-04T17:31:17.052Z,18.80
2018-05-04T17:33:44.619Z,18.70
2018-05-04T17:36:12.129Z,18.70
2018-05-04T17:38:39.647Z,18.60
2018-05-04T17:41:07.917Z,18.60
2018-05-04T17:43:35.437Z,18.50
2018-05-04T17:46:02.947Z,18.40
2018-05-04T17:48:30.489Z,18.40
2018-05-04T17:50:57.993Z,18.30
2018-05-04T17:53:25.598Z,18.20
2018-05-04T17:55:53.100Z,18.20
2018-05-04T17:58:20.659Z,18.10
2018-05-04T18:00:48.184Z,18.00
2018-05-04T18:03:15.720Z,18.00
2018-05-04T18:05:43.239Z,18.00
2018-05-04T18:08:10.747Z,17.90
2018-05-04T18:10:38.387Z,17.80
2018-05-04T18:13:05.896Z,17.70
2018-05-04T18:15:33.436Z,17.70
2018-05-04T18:18:01.737Z,17.50
2018-05-04T18:20:30.024Z,17.40
2018-05-04T18:22:58.303Z,17.30
2018-05-04T18:25:26.612Z,17.40
2018-05-04T18:27:54.111Z,17.40
2018-05-04T18:30:21.632Z,17.30
2018-05-04T18:32:49.941Z,17.00
2018-05-04T18:35:17.590Z,17.00
2018-05-04T18:37:46.888Z,17.10
2018-05-04T18:40:14.492Z,16.90
2018-05-04T18:42:42.836Z,16.70
2018-05-04T18:45:10.422Z,16.70
2018-05-04T18:47:37.932Z,16.90
2018-05-04T18:50:05.632Z,16.70
2018-05-04T18:52:33.142Z,16.60
2018-05-04T18:55:00.709Z,16.70
2018-05-04T18:57:28.227Z,16.50
2018-05-04T18:59:55.732Z,16.30
2018-05-04T19:02:29.185Z,16.40
2018-05-04T19:04:56.692Z,16.30
2018-05-04T19:07:24.220Z,16.20
2018-05-04T19:09:51.713Z,16.10
2018-05-04T19:12:19.996Z,15.80
2018-05-04T19:14:48.300Z,15.70
2018-05-04T19:17:15.938Z,15.70
2018-05-04T19:19:43.613Z,15.70
2018-05-04T19:22:11.149Z,15.50
2018-05-04T19:24:38.663Z,15.40
2018-05-04T19:27:06.184Z,15.40
2018-05-04T19:29:33.688Z,15.20
2018-05-04T19:32:01.232Z,15.20
2018-05-04T19:34:28.777Z,15.20
2018-05-04T19:36:56.350Z,15.20
2018-05-04T19:39:23.885Z,15.30
2018-05-04T19:41:51.443Z,15.40
2018-05-04T19:44:18.989Z,15.30
2018-05-04T19:46:46.519Z,15.20
2018-05-04T19:49:14.800Z,15.10
2018-05-04T19:51:42.360Z,15.10
2018-05-04T19:54:09.879Z,15.00
2018-05-04T19:56:37.425Z,14.90
2018-05-04T19:59:05.719Z,14.70
2018-05-04T20:01:33.997Z,14.70
2018-05-04T20:04:02.339Z,14.90
2018-05-04T20:06:29.851Z,14.90
2018-05-04T20:08:57.368Z,14.90
2018-05-04T20:11:24.900Z,14.80
2018-05-04T20:13:53.240Z,14.90
2018-05-04T20:16:20.758Z,14.80
2018-05-04T20:18:48.365Z,14.60
2018-05-04T20:21:15.933Z,14.50
2018-05-04T20:23:43.460Z,14.40
2018-05-04T20:26:10.979Z,14.30
2018-05-04T20:28:38.504Z,14.20
2018-05-04T20:31:06.845Z,14.20
2018-05-04T20:33:34.405Z,14.20
2018-05-04T20:36:01.930Z,14.40
2018-05-04T20:38:29.448Z,14.30
2018-05-04T20:40:56.976Z,14.10
2018-05-04T20:43:24.495Z,14.10
2018-05-04T20:45:52.010Z,14.30
2018-05-04T20:48:19.572Z,14.10
2018-05-04T20:50:47.094Z,14.10
2018-05-04T20:53:15.383Z,14.30
2018-05-04T20:55:43.655Z,14.00
2018-05-04T20:58:11.193Z,14.00
2018-05-04T21:00:38.694Z,13.90
2018-05-04T21:03:06.450Z,13.90
2018-05-04T21:05:33.999Z,13.90
2018-05-04T21:08:01.500Z,13.80
2018-05-04T21:10:29.038Z,13.70
2018-05-04T21:12:56.626Z,13.70
2018-05-04T21:15:24.168Z,14.00
2018-05-04T21:17:51.668Z,13.80
2018-05-04T21:20:19.191Z,13.60
2018-05-04T21:22:47.464Z,13.80
2018-05-04T21:25:15.034Z,13.80
2018-05-04T21:27:43.358Z,13.50
2018-05-04T21:30:10.883Z,13.50
2018-05-04T21:32:38.551Z,13.50
2018-05-04T21:35:06.084Z,13.80
2018-05-04T21:37:33.620Z,13.60
2018-05-04T21:40:01.924Z,13.10
2018-05-04T21:42:29.432Z,13.00
2018-05-04T21:44:57.007Z,13.00
2018-05-04T21:47:24.582Z,12.90
2018-05-04T21:49:52.137Z,12.90
2018-05-04T21:52:19.734Z,12.70
2018-05-04T21:54:47.289Z,12.60
2018-05-04T21:57:14.791Z,12.70
2018-05-04T21:59:42.339Z,12.60
2018-05-04T22:02:09.865Z,12.70
2018-05-04T22:04:38.261Z,12.50
2018-05-04T22:07:05.866Z,12.50
2018-05-04T22:09:33.435Z,12.40
2018-05-04T22:12:01.057Z,12.30
2018-05-04T22:14:28.576Z,12.30
2018-05-04T22:16:56.192Z,12.50
2018-05-04T22:19:23.758Z,12.30
2018-05-04T22:21:51.289Z,12.20
2018-05-04T22:24:18.842Z,12.10
2018-05-04T22:26:46.382Z,12.00
2018-05-04T22:29:13.905Z,12.20
2018-05-04T22:31:41.428Z,12.10
2018-05-04T22:34:08.940Z,12.10
2018-05-04T22:36:36.475Z,12.10
2018-05-04T22:39:04.038Z,12.00
2018-05-04T22:41:33.087Z,11.90
2018-05-04T22:44:00.584Z,11.90
2018-05-04T22:46:28.121Z,11.80
2018-05-04T22:48:55.628Z,11.80
2018-05-04T22:51:23.187Z,11.70
2018-05-04T22:53:50.781Z,11.80
2018-05-04T22:56:18.322Z,11.70
2018-05-04T22:58:45.880Z,11.90
2018-05-04T23:01:13.466Z,11.80
2018-05-04T23:03:41.006Z,11.70
2018-05-04T23:06:09.460Z,11.50
2018-05-04T23:08:36.994Z,11.50
2018-05-04T23:11:04.531Z,11.50
2018-05-04T23:13:32.123Z,11.50
2018-05-04T23:16:00.459Z,11.30
2018-05-04T23:18:27.999Z,11.30
2018-05-04T23:20:55.552Z,11.30
2018-05-04T23:23:23.835Z,11.40
2018-05-04T23:25:52.109Z,11.30
2018-05-04T23:28:19.656Z,11.30
2018-05-04T23:30:47.179Z,11.40
2018-05-04T23:33:15.496Z,11.10
2018-05-04T23:35:43.028Z,11.10
2018-05-04T23:38:11.330Z,11.00
2018-05-04T23:40:39.614Z,11.00
2018-05-04T23:43:08.072Z,10.90
2018-05-04T23:45:36.305Z,10.90
2018-05-04T23:48:04.588Z,11.00
2018-05-04T23:50:32.876Z,10.90
2018-05-04T23:53:00.431Z,10.90
2018-05-04T23:55:27.968Z,10.90
2018-05-04T23:57:55.489Z,10.90
